Hauptseite
METAR-TAF:

METAR-TAF

Flughäfen :

Flughafen Larnaka

Larnaka, Zypern

Breite: 34-53N, Länge: 033-38E, Höhe: 2 m

Beobachtung

Neuester Wetterbericht von vor 12 Minuten, um 10:00 UTC
Wind 13 kt aus Süd/Südwest
Temperatur 28°C
Luftfeuchtigkeit 35%
Luftdruck 1013 hPa
Sichtweite 10 km oder mehr
Leicht bewölkt in der Höhe von 3000 ft

METAR: LCLK 271000Z 20013KT 9999 FEW030 28/11 Q1013 NOSIG

Zeit: 13:12 (10:12 UTC)

Prognose

Neuester Wetterbericht von vor 4 Stunden und 42 Minuten, um 05:30 UTC
Gültige Prognose vom 27 um 06 UTC bis 28 um 06 UTC
Wind 6 kt aus Süd
Sichtweite 10 km oder mehr
keine Wolken unter 1500 m und keine Kumulonimbus oder Gewitterwolken
Übergehend zu
vom 27 um 09 UTC bis 27 um 11 UTC
Wind 17 kt aus Südwest
Übergehend zu
vom 27 um 15 UTC bis 27 um 18 UTC
Wind 9 kt aus Nordwest

TAF: LCLK 270530Z 2706/2806 18006KT CAVOK BECMG 2709/2711 22017KT BECMG 2715/2718 32009KT

Wetterbeobachtungen und Prognosen von mehr als 4000 Flughäfen (METAR und TAF Bericht).

Die verfügbaren Stationen werden durch gelbe und rote Markierungen auf der Karte dargestellt.

Führen Sie die Maus auf sie, um den Namen der Station zu sehen.

Darauf klicken, um die Beobachtung von Wetterbeobachtungen und Prognosen zu sehen.

Um die Karte zu ändern : klicken Sie auf den grünen Tasten mit einem schwarzen Kreuz Zum Vergrößern, auf den grünen Button mit einem Gedankenstrich zu verkleinern, oder auf die grünen Pfeile für benachbarte Karten.


METAR-TAF: